KHWD/HWD METAR and TAF weather

Enter ICAO airport designator
Station Type Date Time Source
KHWD METAR 2022/01/26 13:54 UTC NOAA

KHWD 261354Z AUTO 00000KT 1/4SM FG VV002 07/06 A3012 RMK AO2 SLP210 T00670056


Station Type Date Time Source
KHWD Decoded METAR 2022/01/26 13:54 UTC NOAA

HAYWARD AIR TERMINAL, CA, United States (KHWD) 37-40N 122-07W 21M
Jan 26, 2022 - 08:54 AM EST / 2022.01.26 1354 UTC
Wind: Calm:0
Visibility: 1/4 mile(s):0
Sky conditions: obscured
Weather: fog
Temperature: 44.1 F (6.7 C)
Dew Point: 42.1 F (5.6 C)
Relative Humidity: 92%
Pressure (altimeter): 30.12 in. Hg (1019 hPa)
ob: KHWD 261354Z AUTO 00000KT 1/4SM FG VV002 07/06 A3012 RMK AO2 SLP210 T00670056
cycle: 14

Station Type Date Time Source
KHWD TAF UTC NOAA

Error!

Example: see airport list